createdAt,value
2022-12-25T00:00:05.835Z,9.443658
2022-12-25T00:01:05.826Z,9.443638
2022-12-25T00:02:05.744Z,9.443582
2022-12-25T00:03:05.823Z,9.443596
2022-12-25T00:04:05.764Z,9.443600
2022-12-25T00:05:05.727Z,9.443606
2022-12-25T00:06:05.715Z,9.443736
2022-12-25T00:07:05.715Z,9.443738
2022-12-25T00:08:05.704Z,9.443731
2022-12-25T00:09:05.708Z,9.443685
2022-12-25T00:10:05.715Z,9.443778
2022-12-25T00:11:05.719Z,9.443678
2022-12-25T00:12:05.682Z,9.443648
2022-12-25T00:13:05.685Z,9.443669
2022-12-25T00:14:05.695Z,9.443734
2022-12-25T00:15:05.683Z,9.443690
2022-12-25T00:16:05.676Z,9.443672
2022-12-25T00:17:05.673Z,9.443651
2022-12-25T00:18:06.247Z,9.443748
2022-12-25T00:19:05.643Z,9.443760
2022-12-25T00:20:05.732Z,9.443699
2022-12-25T00:21:05.652Z,9.443705
2022-12-25T00:22:05.621Z,9.443712
2022-12-25T00:23:05.639Z,9.443701
2022-12-25T00:24:05.611Z,9.443664
2022-12-25T00:25:05.620Z,9.443602
2022-12-25T00:26:05.606Z,9.443611
2022-12-25T00:27:05.628Z,9.443719
2022-12-25T00:28:05.586Z,9.443733
2022-12-25T00:29:05.585Z,9.443745
2022-12-25T00:30:05.575Z,9.443710
2022-12-25T00:31:05.653Z,9.443787
2022-12-25T00:32:05.590Z,9.443801
2022-12-25T00:33:05.577Z,9.443773
2022-12-25T00:34:05.569Z,9.443797
2022-12-25T00:35:05.579Z,9.443702
2022-12-25T00:36:05.541Z,9.443777
2022-12-25T00:37:05.565Z,9.443738
2022-12-25T00:38:06.259Z,9.443711
2022-12-25T00:39:05.533Z,9.443736
2022-12-25T00:40:05.528Z,9.443816
2022-12-25T00:41:05.523Z,9.443782
2022-12-25T00:42:05.504Z,9.443769
2022-12-25T00:43:05.523Z,9.443829
2022-12-25T00:44:05.504Z,9.443829
2022-12-25T00:45:05.498Z,9.443827
2022-12-25T00:46:05.528Z,9.443772
2022-12-25T00:47:05.579Z,9.443958
2022-12-25T00:48:05.496Z,9.444014
2022-12-25T00:49:05.488Z,9.444038
2022-12-25T00:50:05.479Z,9.443949
2022-12-25T00:51:05.464Z,9.443830
2022-12-25T00:52:06.191Z,9.443797
2022-12-25T00:53:05.447Z,9.443747
2022-12-25T00:54:05.625Z,9.443790
2022-12-25T00:55:05.480Z,9.443789
2022-12-25T00:56:05.440Z,9.443713
2022-12-25T00:57:05.451Z,9.443791
2022-12-25T00:58:05.418Z,9.443692
2022-12-25T00:59:05.413Z,9.443726
2022-12-25T01:00:05.408Z,9.443753
2022-12-25T01:01:05.513Z,9.443589
2022-12-25T01:02:05.484Z,9.443653
2022-12-25T01:03:05.419Z,9.443720
2022-12-25T01:04:05.382Z,9.443696
2022-12-25T01:05:05.395Z,9.443638
2022-12-25T01:06:05.373Z,9.443660
2022-12-25T01:07:05.369Z,9.443633
2022-12-25T01:08:05.357Z,9.443595
2022-12-25T01:09:05.356Z,9.443610
2022-12-25T01:10:05.362Z,9.443754
2022-12-25T01:11:05.330Z,9.443711
2022-12-25T01:12:05.328Z,9.443735
2022-12-25T01:13:05.333Z,9.443700
2022-12-25T01:14:05.331Z,9.443736
2022-12-25T01:15:05.330Z,9.443739
2022-12-25T01:16:05.342Z,9.443747
2022-12-25T01:17:05.307Z,9.443740
2022-12-25T01:18:07.899Z,9.443723
2022-12-25T01:19:06.276Z,9.443658
2022-12-25T01:20:05.292Z,9.443660
2022-12-25T01:21:05.267Z,9.443651
2022-12-25T01:22:05.267Z,9.443684
2022-12-25T01:23:05.262Z,9.443645
2022-12-25T01:24:05.246Z,9.443655
2022-12-25T01:25:05.227Z,9.443718
2022-12-25T01:26:06.250Z,9.443727
2022-12-25T01:27:06.269Z,9.443748
2022-12-25T01:28:05.226Z,9.443671
2022-12-25T01:29:05.266Z,9.443662
2022-12-25T01:30:05.227Z,9.443680
2022-12-25T01:31:05.230Z,9.443725
2022-12-25T01:32:05.308Z,9.443687
2022-12-25T01:33:05.191Z,9.443684
2022-12-25T01:34:05.190Z,9.443660
2022-12-25T01:35:05.171Z,9.443774
2022-12-25T01:36:05.180Z,9.443729
2022-12-25T01:37:05.171Z,9.443745
2022-12-25T01:38:05.180Z,9.443751
2022-12-25T01:39:05.160Z,9.443748
2022-12-25T01:40:05.147Z,9.443759
2022-12-25T01:41:05.140Z,9.443743
2022-12-25T01:42:05.154Z,9.443782
2022-12-25T01:43:05.138Z,9.443754
2022-12-25T01:44:05.118Z,9.443760
2022-12-25T01:45:05.134Z,9.443812
2022-12-25T01:46:05.150Z,9.443788
2022-12-25T01:47:05.102Z,9.443785
2022-12-25T01:48:05.102Z,9.443767
2022-12-25T01:49:05.088Z,9.443741
2022-12-25T01:50:05.108Z,9.443717
2022-12-25T01:51:05.068Z,9.443739
2022-12-25T01:52:05.128Z,9.443821
2022-12-25T01:53:05.082Z,9.443744
2022-12-25T01:54:05.083Z,9.443759
2022-12-25T01:55:05.068Z,9.443755
2022-12-25T01:56:05.048Z,9.443750
2022-12-25T01:57:05.036Z,9.443728
2022-12-25T01:58:05.052Z,9.443733
2022-12-25T01:59:05.040Z,9.443729
2022-12-25T02:00:05.032Z,9.443790
2022-12-25T02:01:05.061Z,9.443774
2022-12-25T02:02:05.266Z,9.443797
2022-12-25T02:03:05.034Z,9.443779
2022-12-25T02:04:05.040Z,9.443745
2022-12-25T02:05:05.001Z,9.443794
2022-12-25T02:06:05.005Z,9.443794
2022-12-25T02:07:04.996Z,9.443804
2022-12-25T02:08:04.969Z,9.443789
2022-12-25T02:09:04.977Z,9.443825
2022-12-25T02:10:04.972Z,9.443834
2022-12-25T02:11:04.955Z,9.443804
2022-12-25T02:12:04.945Z,9.443806
2022-12-25T02:13:04.957Z,9.443806
2022-12-25T02:14:04.938Z,9.443770
2022-12-25T02:15:06.306Z,9.443731
2022-12-25T02:16:06.009Z,9.443764
2022-12-25T02:17:04.983Z,9.443747
2022-12-25T02:18:04.937Z,9.443706
2022-12-25T02:19:04.914Z,9.443686
2022-12-25T02:20:04.917Z,9.443689
2022-12-25T02:21:04.895Z,9.443783
2022-12-25T02:22:04.919Z,9.443853
2022-12-25T02:23:04.912Z,9.443912
2022-12-25T02:24:04.877Z,9.443767
2022-12-25T02:25:04.900Z,9.443753
2022-12-25T02:26:04.889Z,9.443703
2022-12-25T02:27:04.882Z,9.443748
2022-12-25T02:28:04.885Z,9.443771
2022-12-25T02:29:04.850Z,9.443694
2022-12-25T02:30:05.847Z,9.443964
2022-12-25T02:31:04.854Z,9.443762
2022-12-25T02:32:04.915Z,9.443645
2022-12-25T02:33:04.854Z,9.443617
2022-12-25T02:34:04.857Z,9.443695
2022-12-25T02:35:04.818Z,9.443806
2022-12-25T02:36:04.798Z,9.443679
2022-12-25T02:37:04.820Z,9.443639
2022-12-25T02:38:04.814Z,9.443571
2022-12-25T02:39:04.835Z,9.443590
2022-12-25T02:40:04.808Z,9.443734
2022-12-25T02:41:04.773Z,9.443700
2022-12-25T02:42:04.800Z,9.443718
2022-12-25T02:43:05.652Z,9.443702
2022-12-25T02:44:05.783Z,9.443556
2022-12-25T02:45:04.916Z,9.443618
2022-12-25T02:46:04.801Z,9.443694
2022-12-25T02:47:04.757Z,9.443683
2022-12-25T02:48:04.734Z,9.443659
2022-12-25T02:49:04.741Z,9.443654
2022-12-25T02:50:04.758Z,9.443700
2022-12-25T02:51:04.726Z,9.443765
2022-12-25T02:52:04.717Z,9.443767
2022-12-25T02:53:04.701Z,9.443756
2022-12-25T02:54:04.708Z,9.443752
2022-12-25T02:55:04.702Z,9.443694
2022-12-25T02:56:04.683Z,9.443626
2022-12-25T02:57:05.347Z,9.443633
2022-12-25T02:58:05.726Z,9.443661
2022-12-25T02:59:04.662Z,9.443692
2022-12-25T03:00:05.670Z,9.443699
2022-12-25T03:01:04.823Z,9.443696
2022-12-25T03:02:04.758Z,9.443660
2022-12-25T03:03:04.745Z,9.443665
2022-12-25T03:04:04.638Z,9.443655
2022-12-25T03:05:04.623Z,9.443657
2022-12-25T03:06:04.657Z,9.443703
2022-12-25T03:07:04.628Z,9.443684
2022-12-25T03:08:04.626Z,9.443669
2022-12-25T03:09:04.609Z,9.443691
2022-12-25T03:10:04.619Z,9.443743
2022-12-25T03:11:04.617Z,9.443709
2022-12-25T03:12:04.609Z,9.443678
2022-12-25T03:13:04.578Z,9.443702
2022-12-25T03:14:04.715Z,9.443670
2022-12-25T03:15:04.599Z,9.443675
2022-12-25T03:16:04.566Z,9.443676
2022-12-25T03:17:04.586Z,9.443695
2022-12-25T03:18:04.589Z,9.443651
2022-12-25T03:19:04.570Z,9.443643
2022-12-25T03:20:04.590Z,9.443663
2022-12-25T03:21:04.554Z,9.443653
2022-12-25T03:22:04.531Z,9.443644
2022-12-25T03:23:04.527Z,9.443664
2022-12-25T03:24:04.541Z,9.443624
2022-12-25T03:25:04.586Z,9.443668
2022-12-25T03:26:04.523Z,9.443685
2022-12-25T03:27:04.523Z,9.443697
2022-12-25T03:28:04.508Z,9.443662
2022-12-25T03:29:04.528Z,9.443667
2022-12-25T03:30:04.492Z,9.443661
2022-12-25T03:31:04.535Z,9.443661
2022-12-25T03:32:04.480Z,9.443688
2022-12-25T03:33:18.049Z,9.443707
2022-12-25T03:34:06.550Z,9.443637
2022-12-25T03:35:04.561Z,9.443633
2022-12-25T03:36:04.468Z,9.443690
2022-12-25T03:37:04.454Z,9.443783
2022-12-25T03:38:04.457Z,9.443742
2022-12-25T03:39:04.437Z,9.443799
2022-12-25T03:40:04.439Z,9.443688
2022-12-25T03:41:04.431Z,9.443708
2022-12-25T03:42:04.422Z,9.443648
2022-12-25T03:43:04.408Z,9.443606
2022-12-25T03:44:04.416Z,9.443671
2022-12-25T03:45:04.488Z,9.443715
2022-12-25T03:46:04.430Z,9.443694
2022-12-25T03:47:04.386Z,9.443677
2022-12-25T03:48:04.386Z,9.443638
2022-12-25T03:49:04.389Z,9.443653
2022-12-25T03:50:04.376Z,9.443683
2022-12-25T03:51:04.384Z,9.443690
2022-12-25T03:52:04.412Z,9.443656
2022-12-25T03:53:04.357Z,9.443551
2022-12-25T03:54:04.364Z,9.443683
2022-12-25T03:55:04.363Z,9.443644
2022-12-25T03:56:04.339Z,9.443656
2022-12-25T03:57:04.331Z,9.443671
2022-12-25T03:58:04.348Z,9.443737
2022-12-25T03:59:04.319Z,9.443740
2022-12-25T04:00:04.323Z,9.443643
2022-12-25T04:01:04.382Z,9.443686
2022-12-25T04:02:04.505Z,9.443728
2022-12-25T04:03:04.381Z,9.443696
2022-12-25T04:04:04.451Z,9.443624
2022-12-25T04:05:04.288Z,9.443729
2022-12-25T04:06:04.295Z,9.443722
2022-12-25T04:07:04.293Z,9.443738
2022-12-25T04:08:04.295Z,9.443904
2022-12-25T04:09:04.286Z,9.443871
2022-12-25T04:10:04.265Z,9.443789
2022-12-25T04:11:04.276Z,9.443721
2022-12-25T04:12:04.278Z,9.443753
2022-12-25T04:13:04.274Z,9.443774
2022-12-25T04:14:04.286Z,9.443749
2022-12-25T04:15:04.225Z,9.443657
2022-12-25T04:16:04.275Z,9.443637
2022-12-25T04:17:04.234Z,9.443650
2022-12-25T04:18:04.263Z,9.443707
2022-12-25T04:19:04.201Z,9.443753
2022-12-25T04:20:04.202Z,9.443785
2022-12-25T04:21:04.194Z,9.443795
2022-12-25T04:22:04.187Z,9.443727
2022-12-25T04:23:04.202Z,9.443671
2022-12-25T04:24:04.191Z,9.443686
2022-12-25T04:25:04.168Z,9.443757
2022-12-25T04:26:04.161Z,9.443823
2022-12-25T04:27:04.144Z,9.443743
2022-12-25T04:28:04.139Z,9.443688
2022-12-25T04:29:04.159Z,9.443747
2022-12-25T04:30:04.138Z,9.443755
2022-12-25T04:31:04.171Z,9.443753
2022-12-25T04:32:04.131Z,9.443729
2022-12-25T04:33:04.107Z,9.443783
2022-12-25T04:34:04.121Z,9.443789
2022-12-25T04:35:04.095Z,9.443772
2022-12-25T04:36:04.100Z,9.443682
2022-12-25T04:37:04.087Z,9.443722
2022-12-25T04:38:04.095Z,9.443800
2022-12-25T04:39:04.118Z,9.443795
2022-12-25T04:40:04.076Z,9.443733
2022-12-25T04:41:04.065Z,9.443612
2022-12-25T04:42:04.053Z,9.443590
2022-12-25T04:43:05.049Z,9.443639
2022-12-25T04:44:04.074Z,9.443660
2022-12-25T04:45:04.064Z,9.443656
2022-12-25T04:46:04.086Z,9.443685
2022-12-25T04:47:10.751Z,9.443722
2022-12-25T04:48:06.034Z,9.443617
2022-12-25T04:49:04.011Z,9.443615
2022-12-25T04:50:04.063Z,9.443677
2022-12-25T04:51:03.999Z,9.443637
2022-12-25T04:52:04.007Z,9.443496
2022-12-25T04:53:03.990Z,9.443627
2022-12-25T04:54:03.988Z,9.443807
2022-12-25T04:55:04.016Z,9.443738
2022-12-25T04:56:03.966Z,9.443570
2022-12-25T04:57:03.976Z,9.443574
2022-12-25T04:58:03.988Z,9.443640
2022-12-25T04:59:03.967Z,9.443861
2022-12-25T05:00:04.038Z,9.443732
2022-12-25T05:01:04.008Z,9.443811
2022-12-25T05:02:04.043Z,9.443760
2022-12-25T05:03:04.076Z,9.443822
2022-12-25T05:04:03.936Z,9.443803
2022-12-25T05:05:03.926Z,9.443788
2022-12-25T05:06:03.979Z,9.443816
2022-12-25T05:07:03.929Z,9.443666
2022-12-25T05:08:03.916Z,9.443677
2022-12-25T05:09:03.920Z,9.443472
2022-12-25T05:10:03.887Z,9.443583
2022-12-25T05:11:03.899Z,9.443655
2022-12-25T05:12:03.934Z,9.443645
2022-12-25T05:13:03.879Z,9.443709
2022-12-25T05:14:03.873Z,9.443747
2022-12-25T05:15:03.866Z,9.443678
2022-12-25T05:16:04.026Z,9.443808
2022-12-25T05:17:03.877Z,9.443691
2022-12-25T05:18:03.894Z,9.443738
2022-12-25T05:19:03.870Z,9.443785
2022-12-25T05:20:03.863Z,9.443736
2022-12-25T05:21:03.826Z,9.443765
2022-12-25T05:22:03.843Z,9.443630
2022-12-25T05:23:03.845Z,9.443715
2022-12-25T05:24:03.816Z,9.443681
2022-12-25T05:25:03.798Z,9.443395
2022-12-25T05:26:03.792Z,9.443558
2022-12-25T05:27:03.805Z,9.443728
2022-12-25T05:28:03.785Z,9.443729
2022-12-25T05:29:03.779Z,9.443777
2022-12-25T05:30:03.776Z,9.443853
2022-12-25T05:31:03.845Z,9.443828
2022-12-25T05:32:03.770Z,9.443718
2022-12-25T05:33:03.766Z,9.443699
2022-12-25T05:34:03.764Z,9.443714
2022-12-25T05:35:03.740Z,9.443822
2022-12-25T05:36:03.737Z,9.443978
2022-12-25T05:37:03.724Z,9.443845
2022-12-25T05:38:03.721Z,9.443822
2022-12-25T05:39:04.723Z,9.443735
2022-12-25T05:40:04.260Z,9.443741
2022-12-25T05:41:03.736Z,9.443698
2022-12-25T05:42:03.738Z,9.443796
2022-12-25T05:43:03.707Z,9.443903
2022-12-25T05:44:03.692Z,9.443833
2022-12-25T05:45:03.713Z,9.443792
2022-12-25T05:46:03.705Z,9.443827
2022-12-25T05:47:03.723Z,9.443804
2022-12-25T05:48:03.680Z,9.443759
2022-12-25T05:49:03.660Z,9.443789
2022-12-25T05:50:03.678Z,9.443769
2022-12-25T05:51:03.667Z,9.443719
2022-12-25T05:52:03.639Z,9.443705
2022-12-25T05:53:08.087Z,9.443712
2022-12-25T05:54:05.628Z,9.443709
2022-12-25T05:55:03.627Z,9.443725
2022-12-25T05:56:03.632Z,9.443719
2022-12-25T05:57:03.652Z,9.443692
2022-12-25T05:58:03.634Z,9.443791
2022-12-25T05:59:03.606Z,9.443708
2022-12-25T06:00:03.740Z,9.443664
2022-12-25T06:01:03.599Z,9.443690
2022-12-25T06:02:03.692Z,9.443741
2022-12-25T06:03:03.771Z,9.443772
2022-12-25T06:04:08.435Z,9.443857
2022-12-25T06:05:05.584Z,9.443670
2022-12-25T06:06:03.564Z,9.443808
2022-12-25T06:07:03.564Z,9.443712
2022-12-25T06:08:03.564Z,9.443748
2022-12-25T06:09:03.532Z,9.443774
2022-12-25T06:10:04.524Z,9.443733
2022-12-25T06:11:03.536Z,9.443782
2022-12-25T06:12:03.532Z,9.443742
2022-12-25T06:13:03.526Z,9.443747
2022-12-25T06:14:03.521Z,9.443583
2022-12-25T06:15:03.498Z,9.443710
2022-12-25T06:16:03.509Z,9.443759
2022-12-25T06:17:03.657Z,9.443840
2022-12-25T06:18:03.517Z,9.443757
2022-12-25T06:19:03.515Z,9.443800
2022-12-25T06:20:03.520Z,9.443790
2022-12-25T06:21:03.458Z,9.443875
2022-12-25T06:22:03.496Z,9.443612
2022-12-25T06:23:03.548Z,9.443631
2022-12-25T06:24:03.544Z,9.443636
2022-12-25T06:25:03.447Z,9.443647
2022-12-25T06:26:03.488Z,9.443794
2022-12-25T06:27:03.441Z,9.443699
2022-12-25T06:28:03.440Z,9.443763
2022-12-25T06:29:03.466Z,9.443648
2022-12-25T06:30:03.407Z,9.443735
2022-12-25T06:31:04.430Z,9.443786
2022-12-25T06:32:03.417Z,9.443715
2022-12-25T06:33:03.434Z,9.443651
2022-12-25T06:34:03.388Z,9.443464
2022-12-25T06:35:03.467Z,9.443548
2022-12-25T06:36:03.384Z,9.443552
2022-12-25T06:37:03.375Z,9.443687
2022-12-25T06:38:03.396Z,9.443626
2022-12-25T06:39:03.386Z,9.443613
2022-12-25T06:40:03.357Z,9.443613
2022-12-25T06:41:03.446Z,9.443653
2022-12-25T06:42:03.350Z,9.443684
2022-12-25T06:43:04.235Z,9.443653
2022-12-25T06:44:03.375Z,9.443716
2022-12-25T06:45:03.338Z,9.443694
2022-12-25T06:46:03.357Z,9.443678
2022-12-25T06:47:03.396Z,9.443870
2022-12-25T06:48:03.331Z,9.443619
2022-12-25T06:49:03.303Z,9.443612
2022-12-25T06:50:03.347Z,9.443695
2022-12-25T06:51:03.306Z,9.443673
2022-12-25T06:52:03.296Z,9.443693
2022-12-25T06:53:03.325Z,9.443758
2022-12-25T06:54:03.313Z,9.443754
2022-12-25T06:55:03.284Z,9.443710
2022-12-25T06:56:03.300Z,9.443707
2022-12-25T06:57:03.273Z,9.443722
2022-12-25T06:58:03.261Z,9.443883
2022-12-25T06:59:03.305Z,9.443879
2022-12-25T07:00:03.298Z,9.443823
2022-12-25T07:01:03.267Z,9.443751
2022-12-25T07:02:03.408Z,9.443790
2022-12-25T07:03:03.470Z,9.443798
2022-12-25T07:04:03.235Z,9.443780
2022-12-25T07:05:03.219Z,9.443769
2022-12-25T07:06:03.282Z,9.443687
2022-12-25T07:07:08.372Z,9.443675
2022-12-25T07:08:05.208Z,9.443633
2022-12-25T07:09:03.238Z,9.443622
2022-12-25T07:10:03.201Z,9.443599
2022-12-25T07:11:03.186Z,9.443612
2022-12-25T07:12:03.247Z,9.443620
2022-12-25T07:13:03.558Z,9.443569
2022-12-25T07:14:03.175Z,9.443630
2022-12-25T07:15:04.156Z,9.443689
2022-12-25T07:16:03.234Z,9.443683
2022-12-25T07:17:03.148Z,9.443665
2022-12-25T07:18:03.134Z,9.443622
2022-12-25T07:19:03.151Z,9.443593
2022-12-25T07:20:03.150Z,9.443636
2022-12-25T07:21:03.135Z,9.443596
2022-12-25T07:22:03.150Z,9.443560
2022-12-25T07:23:03.111Z,9.443454
2022-12-25T07:24:03.101Z,9.443501
2022-12-25T07:25:03.136Z,9.443517
2022-12-25T07:26:03.100Z,9.443566
2022-12-25T07:27:03.102Z,9.443745
2022-12-25T07:28:03.107Z,9.443716
2022-12-25T07:29:03.090Z,9.443662
2022-12-25T07:30:03.090Z,9.443693
2022-12-25T07:31:03.118Z,9.443702
2022-12-25T07:32:03.112Z,9.443656
2022-12-25T07:33:03.071Z,9.443629
2022-12-25T07:34:03.083Z,9.443590
2022-12-25T07:35:03.079Z,9.443459
2022-12-25T07:36:04.047Z,9.443632
2022-12-25T07:37:03.077Z,9.443614
2022-12-25T07:38:03.058Z,9.443651
2022-12-25T07:39:03.032Z,9.443676
2022-12-25T07:40:03.105Z,9.443690
2022-12-25T07:41:03.023Z,9.443613
2022-12-25T07:42:03.013Z,9.443787
2022-12-25T07:43:03.042Z,9.443672
2022-12-25T07:44:03.010Z,9.443531
2022-12-25T07:45:02.992Z,9.443629
2022-12-25T07:46:03.069Z,9.443642
2022-12-25T07:47:02.984Z,9.443640
2022-12-25T07:48:05.890Z,9.443668
2022-12-25T07:49:03.999Z,9.443655
2022-12-25T07:50:02.968Z,9.443652
2022-12-25T07:51:02.958Z,9.443680
2022-12-25T07:52:02.977Z,9.443646
2022-12-25T07:53:02.963Z,9.443545
2022-12-25T07:54:02.943Z,9.443587
2022-12-25T07:55:02.953Z,9.443681
2022-12-25T07:56:02.947Z,9.443690
2022-12-25T07:57:04.279Z,9.443609
2022-12-25T07:58:02.913Z,9.443663
2022-12-25T07:59:02.904Z,9.443733
2022-12-25T08:00:02.945Z,9.443716
2022-12-25T08:01:03.059Z,9.443689
2022-12-25T08:02:03.191Z,9.443755
2022-12-25T08:03:03.127Z,9.443662
2022-12-25T08:04:02.995Z,9.443699
2022-12-25T08:05:02.876Z,9.443752
2022-12-25T08:06:02.912Z,9.443727
2022-12-25T08:07:02.861Z,9.443601
2022-12-25T08:08:02.866Z,9.443370
2022-12-25T08:09:02.887Z,9.443639
2022-12-25T08:10:02.859Z,9.443680
2022-12-25T08:11:02.845Z,9.443676
2022-12-25T08:12:02.878Z,9.443725
2022-12-25T08:13:02.886Z,9.443778
2022-12-25T08:14:02.845Z,9.443725
2022-12-25T08:15:03.525Z,9.443724
2022-12-25T08:16:02.853Z,9.443710
2022-12-25T08:17:02.969Z,9.443679
2022-12-25T08:18:02.805Z,9.443658
2022-12-25T08:19:02.783Z,9.443735
2022-12-25T08:20:03.792Z,9.443757
2022-12-25T08:21:02.801Z,9.443786
2022-12-25T08:22:02.797Z,9.443897
2022-12-25T08:23:02.771Z,9.443881
2022-12-25T08:24:02.796Z,9.443853
2022-12-25T08:25:02.762Z,9.443819
2022-12-25T08:26:05.552Z,9.443831
2022-12-25T08:27:03.770Z,9.443801
2022-12-25T08:28:02.754Z,9.443830
2022-12-25T08:29:02.821Z,9.443830
2022-12-25T08:30:02.744Z,9.443678
2022-12-25T08:31:02.814Z,9.443681
2022-12-25T08:32:02.715Z,9.443683
2022-12-25T08:33:02.733Z,9.443759
2022-12-25T08:34:02.711Z,9.443851
2022-12-25T08:35:02.711Z,9.443841
2022-12-25T08:36:02.697Z,9.443831
2022-12-25T08:37:02.698Z,9.443722
2022-12-25T08:38:02.681Z,9.443727
2022-12-25T08:39:03.575Z,9.443700
2022-12-25T08:40:03.690Z,9.443772
2022-12-25T08:41:02.678Z,9.443847
2022-12-25T08:42:02.732Z,9.443719
2022-12-25T08:43:02.665Z,9.443620
2022-12-25T08:44:02.690Z,9.443679
2022-12-25T08:45:02.658Z,9.443696
2022-12-25T08:46:02.721Z,9.443848
2022-12-25T08:47:02.637Z,9.443803
2022-12-25T08:48:02.701Z,9.443781
2022-12-25T08:49:02.636Z,9.443694
2022-12-25T08:50:02.646Z,9.443708
2022-12-25T08:51:02.652Z,9.443982
2022-12-25T08:52:02.605Z,9.443886
2022-12-25T08:53:02.609Z,9.443873
2022-12-25T08:54:02.608Z,9.443616
2022-12-25T08:55:02.623Z,9.443680
2022-12-25T08:56:02.586Z,9.443748
2022-12-25T08:57:03.178Z,9.443797
2022-12-25T08:58:03.602Z,9.443611
2022-12-25T08:59:02.569Z,9.443555
2022-12-25T09:00:02.571Z,9.443491
2022-12-25T09:01:02.597Z,9.443593
2022-12-25T09:02:02.781Z,9.443654
2022-12-25T09:03:02.765Z,9.443675
2022-12-25T09:04:02.560Z,9.443690
2022-12-25T09:05:02.588Z,9.443782
2022-12-25T09:06:02.538Z,9.443686
2022-12-25T09:07:02.521Z,9.443748
2022-12-25T09:08:02.776Z,9.443692
2022-12-25T09:09:02.610Z,9.443630
2022-12-25T09:10:02.533Z,9.443664
2022-12-25T09:11:02.545Z,9.443683
2022-12-25T09:12:02.519Z,9.443773
2022-12-25T09:13:02.499Z,9.443820
2022-12-25T09:14:02.477Z,9.443732
2022-12-25T09:15:02.515Z,9.443679
2022-12-25T09:16:02.537Z,9.443558
2022-12-25T09:17:02.476Z,9.443758
2022-12-25T09:18:02.484Z,9.443739
2022-12-25T09:19:02.457Z,9.443739
2022-12-25T09:20:03.397Z,9.443748
2022-12-25T09:21:02.442Z,9.443706
2022-12-25T09:22:02.492Z,9.443699
2022-12-25T09:23:02.445Z,9.443684
2022-12-25T09:24:02.431Z,9.443701
2022-12-25T09:25:02.487Z,9.443711
2022-12-25T09:26:02.429Z,9.443678
2022-12-25T09:27:02.482Z,9.443628
2022-12-25T09:28:02.417Z,9.443645
2022-12-25T09:29:02.399Z,9.443679
2022-12-25T09:30:02.412Z,9.443632
2022-12-25T09:31:02.430Z,9.443662
2022-12-25T09:32:02.440Z,9.443699
2022-12-25T09:33:02.381Z,9.443719
2022-12-25T09:34:02.393Z,9.443727
2022-12-25T09:35:02.365Z,9.443707
2022-12-25T09:36:02.360Z,9.443791
2022-12-25T09:37:02.391Z,9.443740
2022-12-25T09:38:02.371Z,9.443666
2022-12-25T09:39:02.346Z,9.443727
2022-12-25T09:40:02.357Z,9.443711
2022-12-25T09:41:02.339Z,9.443729
2022-12-25T09:42:02.362Z,9.443649
2022-12-25T09:43:02.336Z,9.443688
2022-12-25T09:44:02.453Z,9.443639
2022-12-25T09:45:02.298Z,9.443674
2022-12-25T09:46:02.497Z,9.443682
2022-12-25T09:47:02.389Z,9.443597
2022-12-25T09:48:02.299Z,9.443566
2022-12-25T09:49:03.291Z,9.443538
2022-12-25T09:50:02.291Z,9.443634
2022-12-25T09:51:02.260Z,9.443706
2022-12-25T09:52:02.289Z,9.443939
2022-12-25T09:53:02.285Z,9.444022
2022-12-25T09:54:02.254Z,9.443891
2022-12-25T09:55:02.266Z,9.443824
2022-12-25T09:56:02.231Z,9.443747
2022-12-25T09:57:02.249Z,9.443763
2022-12-25T09:58:02.241Z,9.443599
2022-12-25T09:59:02.215Z,9.443681
2022-12-25T10:00:02.203Z,9.443784
2022-12-25T10:01:02.259Z,9.443748
2022-12-25T10:02:02.332Z,9.443848
2022-12-25T10:03:02.476Z,9.443779
2022-12-25T10:04:02.192Z,9.443816
2022-12-25T10:05:02.177Z,9.443682
2022-12-25T10:06:02.163Z,9.443694
2022-12-25T10:07:02.182Z,9.443639
2022-12-25T10:08:02.182Z,9.443668
2022-12-25T10:09:02.162Z,9.443678
2022-12-25T10:10:02.144Z,9.443607
2022-12-25T10:11:02.127Z,9.443675
2022-12-25T10:12:02.168Z,9.443635
2022-12-25T10:13:02.141Z,9.443732
2022-12-25T10:14:02.130Z,9.443691
2022-12-25T10:15:02.159Z,9.443680
2022-12-25T10:16:02.120Z,9.443679
2022-12-25T10:17:02.161Z,9.443691
2022-12-25T10:18:02.119Z,9.443736
2022-12-25T10:19:02.100Z,9.443730
2022-12-25T10:20:02.118Z,9.443716
2022-12-25T10:21:02.067Z,9.443701
2022-12-25T10:22:02.075Z,9.443687
2022-12-25T10:23:02.121Z,9.443699
2022-12-25T10:24:02.072Z,9.443711
2022-12-25T10:25:02.075Z,9.443712
2022-12-25T10:26:02.041Z,9.443716
2022-12-25T10:27:02.051Z,9.443684
2022-12-25T10:28:02.027Z,9.443708
2022-12-25T10:29:02.080Z,9.443724
2022-12-25T10:30:02.039Z,9.443747
2022-12-25T10:31:02.066Z,9.443734
2022-12-25T10:32:01.998Z,9.443763
2022-12-25T10:33:02.023Z,9.443728
2022-12-25T10:34:02.009Z,9.443687
2022-12-25T10:35:01.998Z,9.443726
2022-12-25T10:36:02.985Z,9.443789
2022-12-25T10:37:02.009Z,9.443792
2022-12-25T10:38:01.959Z,9.443810
2022-12-25T10:39:01.991Z,9.443863
2022-12-25T10:40:01.994Z,9.443835
2022-12-25T10:41:01.982Z,9.443816
2022-12-25T10:42:01.931Z,9.443728
2022-12-25T10:43:01.976Z,9.443707
2022-12-25T10:44:01.933Z,9.443707
2022-12-25T10:45:01.963Z,9.443786
2022-12-25T10:46:01.966Z,9.443752
2022-12-25T10:47:01.952Z,9.443769
2022-12-25T10:48:06.879Z,9.443659
2022-12-25T10:49:03.918Z,9.443697
2022-12-25T10:50:01.922Z,9.443783
2022-12-25T10:51:01.895Z,9.443674
2022-12-25T10:52:01.873Z,9.443746
2022-12-25T10:53:01.854Z,9.443756
2022-12-25T10:54:01.883Z,9.443810
2022-12-25T10:55:01.851Z,9.443809
2022-12-25T10:56:01.865Z,9.443826
2022-12-25T10:57:01.849Z,9.443806
2022-12-25T10:58:02.060Z,9.443773
2022-12-25T10:59:01.848Z,9.443760
2022-12-25T11:00:01.844Z,9.443708
2022-12-25T11:01:01.840Z,9.443723
2022-12-25T11:02:01.926Z,9.443810
2022-12-25T11:03:02.156Z,9.443542
2022-12-25T11:04:01.836Z,9.443570
2022-12-25T11:05:01.783Z,9.443612
2022-12-25T11:06:01.798Z,9.443673
2022-12-25T11:07:01.786Z,9.443619
2022-12-25T11:08:02.980Z,9.443637
2022-12-25T11:09:01.791Z,9.443653
2022-12-25T11:10:05.089Z,9.443636
2022-12-25T11:11:02.829Z,9.443686
2022-12-25T11:12:01.745Z,9.443706
2022-12-25T11:13:01.728Z,9.443726
2022-12-25T11:14:01.735Z,9.443719
2022-12-25T11:15:01.720Z,9.443768
2022-12-25T11:16:01.779Z,9.443659
2022-12-25T11:17:01.690Z,9.443690
2022-12-25T11:18:01.681Z,9.443712
2022-12-25T11:19:02.745Z,9.443735
2022-12-25T11:20:01.741Z,9.443709
2022-12-25T11:21:01.679Z,9.443695
2022-12-25T11:22:01.701Z,9.443715
2022-12-25T11:23:01.681Z,9.443757
2022-12-25T11:24:01.739Z,9.443758
2022-12-25T11:25:01.672Z,9.443712
2022-12-25T11:26:01.634Z,9.443699
2022-12-25T11:27:01.689Z,9.443758
2022-12-25T11:28:01.644Z,9.443875
2022-12-25T11:29:01.639Z,9.443763
2022-12-25T11:30:01.638Z,9.443699
2022-12-25T11:31:01.766Z,9.443758
2022-12-25T11:32:01.603Z,9.443748
2022-12-25T11:33:01.595Z,9.443794
2022-12-25T11:34:01.584Z,9.443727
2022-12-25T11:35:01.575Z,9.443729
2022-12-25T11:36:01.620Z,9.443731
2022-12-25T11:37:01.688Z,9.443694
2022-12-25T11:38:01.598Z,9.443650
2022-12-25T11:39:01.721Z,9.443571
2022-12-25T11:40:01.586Z,9.443705
2022-12-25T11:41:01.552Z,9.443794
2022-12-25T11:42:01.548Z,9.443755
2022-12-25T11:43:07.547Z,9.443704
2022-12-25T11:44:03.515Z,9.443728